createdAt,value
2022-08-05T00:01:28.563Z,27.60
2022-08-05T00:03:56.964Z,27.50
2022-08-05T00:06:32.434Z,27.30
2022-08-05T00:09:01.096Z,27.30
2022-08-05T00:11:34.477Z,27.20
2022-08-05T00:14:17.260Z,27.10
2022-08-05T00:16:53.389Z,27.00
2022-08-05T00:19:24.898Z,27.10
2022-08-05T00:22:01.383Z,27.00
2022-08-05T00:24:31.254Z,26.90
2022-08-05T00:26:58.875Z,26.90
2022-08-05T00:29:26.146Z,26.80
2022-08-05T00:32:13.039Z,26.70
2022-08-05T00:35:03.701Z,26.80
2022-08-05T00:37:51.176Z,26.70
2022-08-05T00:40:17.968Z,26.70
2022-08-05T00:42:53.628Z,26.70
2022-08-05T00:45:28.282Z,26.60
2022-08-05T00:48:05.884Z,26.70
2022-08-05T00:50:32.774Z,26.70
2022-08-05T00:52:59.455Z,26.70
2022-08-05T00:55:34.190Z,26.70
2022-08-05T00:58:11.238Z,26.70
2022-08-05T01:00:38.510Z,26.70
2022-08-05T01:03:07.963Z,26.80
2022-08-05T01:05:35.183Z,26.80
2022-08-05T01:08:41.801Z,26.80
2022-08-05T01:11:13.644Z,26.80
2022-08-05T01:13:59.062Z,26.90
2022-08-05T01:16:50.578Z,26.90
2022-08-05T01:20:01.182Z,26.90
2022-08-05T01:23:05.773Z,26.80
2022-08-05T01:26:06.130Z,26.80
2022-08-05T01:28:43.906Z,26.80
2022-08-05T01:31:42.567Z,26.80
2022-08-05T01:34:32.772Z,26.70
2022-08-05T01:37:05.673Z,26.70
2022-08-05T01:39:46.236Z,26.70
2022-08-05T01:42:16.301Z,26.70
2022-08-05T01:44:44.146Z,26.60
2022-08-05T01:47:15.099Z,26.60
2022-08-05T01:50:01.796Z,26.50
2022-08-05T01:52:31.569Z,26.40
2022-08-05T01:55:04.356Z,26.40
2022-08-05T01:58:11.440Z,26.40
2022-08-05T02:00:21.507Z,26.50
2022-08-05T02:03:16.313Z,26.40
2022-08-05T02:05:53.707Z,26.40
2022-08-05T02:08:31.192Z,26.20
2022-08-05T02:11:11.718Z,26.20
2022-08-05T02:13:53.128Z,26.20
2022-08-05T02:16:52.801Z,26.30
2022-08-05T02:19:22.933Z,26.30
2022-08-05T02:22:01.203Z,26.20
2022-08-05T02:24:38.077Z,26.30
2022-08-05T02:27:10.033Z,26.20
2022-08-05T02:29:59.938Z,26.20
2022-08-05T02:32:31.091Z,26.20
2022-08-05T02:35:13.563Z,26.20
2022-08-05T02:37:43.109Z,26.10
2022-08-05T02:40:16.979Z,26.10
2022-08-05T02:42:53.082Z,25.80
2022-08-05T02:45:24.015Z,25.80
2022-08-05T02:48:07.476Z,25.70
2022-08-05T02:50:43.906Z,25.60
2022-08-05T02:53:12.033Z,25.40
2022-08-05T02:55:54.325Z,25.40
2022-08-05T02:58:27.392Z,25.30
2022-08-05T03:00:58.739Z,25.20
2022-08-05T03:03:28.490Z,25.10
2022-08-05T03:06:55.039Z,25.00
2022-08-05T03:08:52.237Z,24.90
2022-08-05T03:11:55.509Z,24.90
2022-08-05T03:14:08.041Z,24.90
2022-08-05T03:16:35.782Z,24.80
2022-08-05T03:19:12.950Z,24.70
2022-08-05T03:21:48.740Z,24.60
2022-08-05T03:24:29.481Z,24.60
2022-08-05T03:26:57.673Z,24.60
2022-08-05T03:29:24.500Z,24.50
2022-08-05T03:32:12.868Z,24.50
2022-08-05T03:34:42.162Z,24.40
2022-08-05T03:37:18.678Z,24.40
2022-08-05T03:40:01.486Z,24.40
2022-08-05T03:42:32.162Z,24.30
2022-08-05T03:44:59.199Z,24.20
2022-08-05T03:47:30.545Z,24.10
2022-08-05T03:50:02.299Z,23.90
2022-08-05T03:52:38.008Z,23.80
2022-08-05T03:56:04.251Z,23.70
2022-08-05T03:58:22.737Z,23.60
2022-08-05T04:00:59.056Z,23.50
2022-08-05T04:03:29.291Z,23.40
2022-08-05T04:05:57.858Z,23.30
2022-08-05T04:08:36.261Z,23.30
2022-08-05T04:11:05.917Z,23.30
2022-08-05T04:13:50.487Z,23.20
2022-08-05T04:16:25.531Z,23.20
2022-08-05T04:19:00.099Z,23.20
2022-08-05T04:22:10.358Z,23.30
2022-08-05T04:24:19.613Z,23.20
2022-08-05T04:26:49.870Z,23.20
2022-08-05T04:29:16.990Z,23.20
2022-08-05T04:31:43.669Z,23.20
2022-08-05T04:34:18.238Z,23.20
2022-08-05T04:36:49.881Z,23.20
2022-08-05T04:39:18.157Z,23.20
2022-08-05T04:41:45.843Z,23.20
2022-08-05T04:44:14.922Z,23.20
2022-08-05T04:46:48.546Z,23.20
2022-08-05T04:49:15.433Z,23.20
2022-08-05T04:51:44.059Z,23.20
2022-08-05T04:54:12.180Z,23.20
2022-08-05T04:56:39.380Z,23.20
2022-08-05T04:59:21.770Z,23.20
2022-08-05T05:02:07.982Z,23.30
2022-08-05T05:04:38.511Z,23.30
2022-08-05T05:07:15.956Z,23.30
2022-08-05T05:09:44.380Z,23.40
2022-08-05T05:12:11.536Z,23.30
2022-08-05T05:14:38.421Z,23.40
2022-08-05T05:17:19.870Z,23.40
2022-08-05T05:19:52.558Z,23.30
2022-08-05T05:22:24.049Z,23.30
2022-08-05T05:24:57.052Z,23.40
2022-08-05T05:27:25.281Z,23.30
2022-08-05T05:30:29.817Z,23.40
2022-08-05T05:33:09.443Z,23.60
2022-08-05T05:35:48.025Z,23.70
2022-08-05T05:38:22.698Z,23.80
2022-08-05T05:40:54.603Z,23.80
2022-08-05T05:43:56.488Z,23.90
2022-08-05T05:46:17.432Z,24.00
2022-08-05T05:48:47.716Z,24.20
2022-08-05T05:51:22.723Z,24.20
2022-08-05T05:53:57.409Z,24.30
2022-08-05T05:56:32.965Z,24.30
2022-08-05T05:59:03.558Z,24.40
2022-08-05T06:01:37.426Z,24.50
2022-08-05T06:04:06.084Z,24.60
2022-08-05T06:06:34.758Z,24.70
2022-08-05T06:09:05.762Z,24.80
2022-08-05T06:11:34.702Z,24.70
2022-08-05T06:14:02.114Z,24.70
2022-08-05T06:16:36.586Z,24.70
2022-08-05T06:19:05.696Z,24.80
2022-08-05T06:21:36.799Z,24.70
2022-08-05T06:24:06.084Z,24.80
2022-08-05T06:26:35.081Z,24.80
2022-08-05T06:29:06.919Z,24.80
2022-08-05T06:31:50.621Z,25.00
2022-08-05T06:34:17.614Z,25.10
2022-08-05T06:36:57.679Z,25.20
2022-08-05T06:39:27.607Z,25.30
2022-08-05T06:41:59.240Z,25.30
2022-08-05T06:44:26.237Z,25.20
2022-08-05T06:46:54.365Z,25.20
2022-08-05T06:49:59.892Z,25.20
2022-08-05T06:52:08.250Z,25.10
2022-08-05T06:54:54.887Z,24.80
2022-08-05T06:58:02.677Z,24.60
2022-08-05T07:00:09.705Z,24.50
2022-08-05T07:02:43.938Z,24.20
2022-08-05T07:05:14.471Z,23.90
2022-08-05T07:07:48.812Z,23.80
2022-08-05T07:10:16.358Z,23.70
2022-08-05T07:13:02.146Z,23.60
2022-08-05T07:16:01.547Z,23.60
2022-08-05T07:18:31.821Z,23.70
2022-08-05T07:20:58.834Z,23.80
2022-08-05T07:23:32.116Z,23.90
2022-08-05T07:25:58.884Z,24.00
2022-08-05T07:28:26.268Z,24.10
2022-08-05T07:30:55.142Z,24.20
2022-08-05T07:33:36.588Z,24.20
2022-08-05T07:36:20.342Z,24.20
2022-08-05T07:38:47.858Z,24.20
2022-08-05T07:42:14.383Z,24.30
2022-08-05T07:44:14.391Z,24.30
2022-08-05T07:46:46.732Z,24.30
2022-08-05T07:49:18.300Z,24.20
2022-08-05T07:51:53.560Z,24.10
2022-08-05T07:54:31.250Z,23.90
2022-08-05T07:57:17.965Z,23.90
2022-08-05T07:59:48.885Z,23.90
2022-08-05T08:02:17.588Z,23.80
2022-08-05T08:04:48.948Z,23.90
2022-08-05T08:07:22.224Z,23.80
2022-08-05T08:09:52.521Z,23.90
2022-08-05T08:12:32.004Z,23.80
2022-08-05T08:15:09.696Z,23.80
2022-08-05T08:17:50.780Z,23.80
2022-08-05T08:20:59.778Z,23.90
2022-08-05T08:24:00.166Z,23.90
2022-08-05T08:25:59.105Z,23.90
2022-08-05T08:28:36.050Z,24.00
2022-08-05T08:31:07.936Z,23.90
2022-08-05T08:33:35.972Z,24.00
2022-08-05T08:36:29.804Z,24.00
2022-08-05T08:38:55.887Z,23.90
2022-08-05T08:41:26.071Z,24.00
2022-08-05T08:45:18.095Z,24.00
2022-08-05T08:47:03.582Z,24.00
2022-08-05T08:50:13.020Z,24.00
2022-08-05T08:52:41.108Z,24.10
2022-08-05T08:55:14.260Z,24.00
2022-08-05T08:57:58.135Z,24.10
2022-08-05T09:00:25.424Z,24.20
2022-08-05T09:02:54.313Z,24.30
2022-08-05T09:05:38.468Z,24.50
2022-08-05T09:08:08.198Z,24.60
2022-08-05T09:10:36.703Z,24.70
2022-08-05T09:13:07.218Z,24.60
2022-08-05T09:15:37.036Z,24.50
2022-08-05T09:18:07.201Z,24.60
2022-08-05T09:20:37.730Z,24.70
2022-08-05T09:23:19.475Z,24.80
2022-08-05T09:26:00.858Z,24.70
2022-08-05T09:28:32.329Z,24.80
2022-08-05T09:31:22.593Z,24.90
2022-08-05T09:34:07.167Z,25.00
2022-08-05T09:36:53.990Z,25.20
2022-08-05T09:39:27.610Z,25.40
2022-08-05T09:42:08.795Z,25.50
2022-08-05T09:44:43.345Z,25.80
2022-08-05T09:47:22.211Z,26.10
2022-08-05T09:50:00.909Z,26.30
2022-08-05T09:52:31.071Z,26.50
2022-08-05T09:55:56.992Z,26.70
2022-08-05T09:57:58.533Z,26.90
2022-08-05T10:00:26.431Z,27.10
2022-08-05T10:02:58.641Z,27.20
2022-08-05T10:05:28.826Z,27.30
2022-08-05T10:08:35.407Z,27.30
2022-08-05T10:10:54.718Z,27.20
2022-08-05T10:13:47.369Z,27.30
2022-08-05T10:16:37.934Z,27.40
2022-08-05T10:19:19.295Z,27.60
2022-08-05T10:21:50.975Z,27.70
2022-08-05T10:24:21.288Z,27.90
2022-08-05T10:26:56.187Z,28.10
2022-08-05T10:30:06.913Z,28.40
2022-08-05T10:32:52.339Z,28.80
2022-08-05T10:35:04.194Z,29.20
2022-08-05T10:37:44.364Z,29.40
2022-08-05T10:40:33.895Z,29.20
2022-08-05T10:43:20.661Z,29.30
2022-08-05T10:46:06.203Z,29.50
2022-08-05T10:48:52.735Z,29.70
2022-08-05T10:51:29.208Z,29.90
2022-08-05T10:54:01.908Z,30.20
2022-08-05T10:56:49.342Z,30.50
2022-08-05T11:00:03.677Z,30.90
2022-08-05T11:02:37.571Z,30.90
2022-08-05T11:05:05.604Z,30.90
2022-08-05T11:07:33.049Z,30.80
2022-08-05T11:10:27.513Z,30.60
2022-08-05T11:12:57.718Z,30.40
2022-08-05T11:15:59.111Z,30.20
2022-08-05T11:18:34.080Z,30.10
2022-08-05T11:21:06.202Z,30.00
2022-08-05T11:24:04.964Z,30.00
2022-08-05T11:26:40.929Z,30.40
2022-08-05T11:29:38.044Z,30.80
2022-08-05T11:32:27.456Z,31.20
2022-08-05T11:34:55.346Z,31.40
2022-08-05T11:38:30.246Z,31.60
2022-08-05T11:41:14.460Z,31.60
2022-08-05T11:44:07.473Z,31.70
2022-08-05T11:47:10.011Z,31.80
2022-08-05T11:49:39.226Z,31.80
2022-08-05T11:52:11.723Z,31.70
2022-08-05T11:54:40.343Z,31.60
2022-08-05T11:57:39.397Z,31.80
2022-08-05T11:59:55.222Z,32.00
2022-08-05T12:02:31.925Z,32.20
2022-08-05T12:05:01.003Z,32.50
2022-08-05T12:08:02.610Z,32.70
2022-08-05T12:10:23.057Z,32.90
2022-08-05T12:12:59.928Z,33.10
2022-08-05T12:15:38.419Z,33.40
2022-08-05T12:18:10.816Z,33.70
2022-08-05T12:20:39.175Z,33.80
2022-08-05T12:23:12.612Z,34.00
2022-08-05T12:25:50.566Z,34.40
2022-08-05T12:28:32.562Z,34.60
2022-08-05T12:31:01.902Z,34.60
2022-08-05T12:33:37.240Z,34.60
2022-08-05T12:36:09.407Z,34.60
2022-08-05T12:38:40.360Z,34.50
2022-08-05T12:41:14.531Z,34.50
2022-08-05T12:43:54.951Z,34.50
2022-08-05T12:46:29.316Z,34.30
2022-08-05T12:49:00.561Z,34.00
2022-08-05T12:52:14.354Z,33.60
2022-08-05T12:54:26.870Z,33.20
2022-08-05T12:56:54.517Z,32.90
2022-08-05T13:00:08.997Z,32.50
2022-08-05T13:02:31.291Z,32.20
2022-08-05T13:04:58.702Z,32.00
2022-08-05T13:07:57.556Z,31.90
2022-08-05T13:10:19.631Z,31.70
2022-08-05T13:12:51.256Z,31.50
2022-08-05T13:15:41.372Z,31.40
2022-08-05T13:18:19.688Z,31.00
2022-08-05T13:20:49.223Z,30.90
2022-08-05T13:23:18.211Z,30.70
2022-08-05T13:25:51.872Z,30.60
2022-08-05T13:28:25.512Z,30.40
2022-08-05T13:30:53.369Z,30.30
2022-08-05T13:34:22.600Z,30.30
2022-08-05T13:36:09.235Z,30.30
2022-08-05T13:38:38.232Z,30.40
2022-08-05T13:41:08.890Z,30.60
2022-08-05T13:43:45.723Z,30.80
2022-08-05T13:46:50.690Z,30.90
2022-08-05T13:49:12.857Z,31.00
2022-08-05T13:51:46.678Z,31.10
2022-08-05T13:54:15.495Z,31.20
2022-08-05T13:56:50.713Z,31.40
2022-08-05T13:59:24.070Z,31.70
2022-08-05T14:01:59.005Z,32.00
2022-08-05T14:04:56.435Z,31.90
2022-08-05T14:07:59.616Z,31.70
2022-08-05T14:10:27.957Z,31.70
2022-08-05T14:12:57.945Z,31.40
2022-08-05T14:16:04.489Z,31.20
2022-08-05T14:18:15.074Z,30.90
2022-08-05T14:20:47.315Z,30.70
2022-08-05T14:23:19.196Z,30.40
2022-08-05T14:25:57.999Z,30.10
2022-08-05T14:28:29.625Z,29.70
2022-08-05T14:31:00.555Z,29.60
2022-08-05T14:33:27.797Z,29.50
2022-08-05T14:36:14.417Z,29.20
2022-08-05T14:38:41.836Z,28.70
2022-08-05T14:41:08.519Z,28.40
2022-08-05T14:44:01.666Z,27.90
2022-08-05T14:46:28.324Z,27.60
2022-08-05T14:48:57.751Z,27.10
2022-08-05T14:51:26.459Z,26.90
2022-08-05T14:54:26.869Z,26.60
2022-08-05T14:56:46.789Z,26.30
2022-08-05T14:59:14.315Z,26.20
2022-08-05T15:01:47.914Z,26.00
2022-08-05T15:04:20.632Z,25.90
2022-08-05T15:06:50.033Z,25.90
2022-08-05T15:09:52.538Z,25.60
2022-08-05T15:12:09.465Z,25.60
2022-08-05T15:14:42.232Z,25.60
2022-08-05T15:17:46.502Z,25.60
2022-08-05T15:20:03.940Z,25.50
2022-08-05T15:22:30.615Z,25.50
2022-08-05T15:24:59.063Z,25.40
2022-08-05T15:27:26.065Z,25.30
2022-08-05T15:29:58.730Z,25.40
2022-08-05T15:32:28.595Z,25.40
2022-08-05T15:34:56.242Z,25.30
2022-08-05T15:38:32.797Z,25.30
2022-08-05T15:40:59.682Z,25.20
2022-08-05T15:43:09.236Z,25.10
2022-08-05T15:45:47.408Z,25.10
2022-08-05T15:48:15.146Z,25.20
2022-08-05T15:50:43.904Z,25.20
2022-08-05T15:53:13.093Z,25.10
2022-08-05T15:56:03.511Z,25.30
2022-08-05T15:58:30.133Z,25.40
2022-08-05T16:01:16.044Z,25.50
2022-08-05T16:03:48.587Z,25.50
2022-08-05T16:06:19.666Z,25.70
2022-08-05T16:08:47.644Z,25.70
2022-08-05T16:11:14.341Z,25.80
2022-08-05T16:13:41.700Z,25.70
2022-08-05T16:16:10.636Z,25.60
2022-08-05T16:18:51.942Z,25.60
2022-08-05T16:21:20.614Z,25.60
2022-08-05T16:24:12.633Z,25.60
2022-08-05T16:26:57.762Z,25.60
2022-08-05T16:29:26.504Z,25.60
2022-08-05T16:31:56.874Z,25.40
2022-08-05T16:34:25.973Z,25.30
2022-08-05T16:36:54.266Z,25.20
2022-08-05T16:40:04.829Z,25.10
2022-08-05T16:42:15.768Z,25.00
2022-08-05T16:44:57.109Z,25.00
2022-08-05T16:47:28.743Z,24.90
2022-08-05T16:50:04.780Z,24.80
2022-08-05T16:52:33.317Z,24.80
2022-08-05T16:55:00.440Z,24.70
2022-08-05T16:57:52.539Z,24.60
2022-08-05T17:00:14.442Z,24.60
2022-08-05T17:03:15.352Z,24.50
2022-08-05T17:05:51.784Z,24.50
2022-08-05T17:08:36.799Z,24.40
2022-08-05T17:11:12.795Z,24.30
2022-08-05T17:13:44.194Z,24.30
2022-08-05T17:16:29.695Z,24.20
2022-08-05T17:18:59.142Z,24.20
2022-08-05T17:21:25.971Z,24.20
2022-08-05T17:24:05.944Z,24.10
2022-08-05T17:26:36.138Z,24.10
2022-08-05T17:29:07.453Z,24.10
2022-08-05T17:31:56.432Z,24.10
2022-08-05T17:34:29.449Z,24.10
2022-08-05T17:36:57.023Z,24.20
2022-08-05T17:39:33.564Z,24.20
2022-08-05T17:42:20.104Z,24.20
2022-08-05T17:44:50.518Z,24.20
2022-08-05T17:47:23.097Z,24.10
2022-08-05T17:50:00.523Z,24.10
2022-08-05T17:52:34.721Z,24.20
2022-08-05T17:55:20.992Z,24.30
2022-08-05T17:57:48.641Z,24.30
2022-08-05T18:00:17.466Z,24.40
2022-08-05T18:02:47.095Z,24.50
2022-08-05T18:05:16.854Z,24.50
2022-08-05T18:07:44.615Z,24.60
2022-08-05T18:10:20.378Z,24.50
2022-08-05T18:12:48.079Z,24.60
2022-08-05T18:15:14.840Z,24.60
2022-08-05T18:17:59.724Z,24.60
2022-08-05T18:20:29.429Z,24.60
2022-08-05T18:23:00.749Z,24.60
2022-08-05T18:25:39.187Z,24.60
2022-08-05T18:28:07.289Z,24.60
2022-08-05T18:30:40.206Z,24.60
2022-08-05T18:33:08.423Z,24.60
2022-08-05T18:36:00.490Z,24.60
2022-08-05T18:38:26.154Z,24.50
2022-08-05T18:41:55.014Z,24.40
2022-08-05T18:43:43.224Z,24.30
2022-08-05T18:46:15.635Z,24.20
2022-08-05T18:48:46.423Z,24.20
2022-08-05T18:52:05.361Z,24.10
2022-08-05T18:54:19.540Z,24.00
2022-08-05T18:56:51.266Z,23.90
2022-08-05T18:59:43.212Z,23.80
2022-08-05T19:02:11.418Z,23.70
2022-08-05T19:05:02.091Z,23.60
2022-08-05T19:07:45.092Z,23.50
2022-08-05T19:10:12.421Z,23.50
2022-08-05T19:12:39.162Z,23.40
2022-08-05T19:15:06.367Z,23.40
2022-08-05T19:18:08.875Z,23.30
2022-08-05T19:20:36.884Z,23.30
2022-08-05T19:23:07.943Z,23.10
2022-08-05T19:25:39.235Z,23.10
2022-08-05T19:28:10.416Z,23.10
2022-08-05T19:30:37.160Z,23.00
2022-08-05T19:33:04.383Z,22.80
2022-08-05T19:35:55.861Z,22.80
2022-08-05T19:38:24.568Z,22.80
2022-08-05T19:40:53.491Z,22.70
2022-08-05T19:44:04.956Z,22.60
2022-08-05T19:46:16.521Z,22.60
2022-08-05T19:48:43.975Z,22.50
2022-08-05T19:52:04.615Z,22.40
2022-08-05T19:54:12.898Z,22.40
2022-08-05T19:56:54.261Z,22.30
2022-08-05T19:59:54.517Z,22.20
2022-08-05T20:02:08.102Z,22.20
2022-08-05T20:04:34.863Z,22.10
2022-08-05T20:07:01.921Z,22.00
2022-08-05T20:09:28.811Z,21.90
2022-08-05T20:12:15.583Z,21.90
2022-08-05T20:14:42.262Z,21.80
2022-08-05T20:17:09.968Z,21.70
2022-08-05T20:19:41.386Z,21.60
2022-08-05T20:22:09.532Z,21.50
2022-08-05T20:24:36.570Z,21.50
2022-08-05T20:27:11.320Z,21.40
2022-08-05T20:29:39.687Z,21.30
2022-08-05T20:32:06.640Z,21.20
2022-08-05T20:34:33.341Z,21.20
2022-08-05T20:37:00.993Z,21.10
2022-08-05T20:39:35.410Z,21.00
2022-08-05T20:42:04.457Z,20.90
2022-08-05T20:44:32.726Z,20.90
2022-08-05T20:47:06.704Z,20.90
2022-08-05T20:49:39.450Z,20.80
2022-08-05T20:52:07.647Z,20.70
2022-08-05T20:54:43.037Z,20.70
2022-08-05T20:57:24.692Z,20.70
2022-08-05T21:00:20.915Z,20.60
2022-08-05T21:03:01.196Z,20.50
2022-08-05T21:05:28.573Z,20.40
2022-08-05T21:08:08.632Z,20.40
2022-08-05T21:10:35.551Z,20.30
2022-08-05T21:13:12.199Z,20.30
2022-08-05T21:15:44.400Z,20.20
2022-08-05T21:18:14.531Z,20.20
2022-08-05T21:20:41.334Z,20.10
2022-08-05T21:23:09.724Z,20.10
2022-08-05T21:25:37.616Z,20.10
2022-08-05T21:28:04.487Z,20.00
2022-08-05T21:30:31.644Z,20.00
2022-08-05T21:32:58.599Z,19.90
2022-08-05T21:35:30.188Z,19.90
2022-08-05T21:38:10.611Z,19.90
2022-08-05T21:40:39.186Z,19.80
2022-08-05T21:43:08.340Z,19.80
2022-08-05T21:45:56.217Z,19.70
2022-08-05T21:48:23.837Z,19.70
2022-08-05T21:50:53.050Z,19.70
2022-08-05T21:53:21.492Z,19.70
2022-08-05T21:56:05.753Z,19.60
2022-08-05T21:58:42.325Z,19.60
2022-08-05T22:01:10.819Z,19.60
2022-08-05T22:03:52.003Z,19.60
2022-08-05T22:06:22.821Z,19.50
2022-08-05T22:08:52.081Z,19.50
2022-08-05T22:11:35.252Z,19.50
2022-08-05T22:14:33.836Z,19.50
2022-08-05T22:16:51.068Z,19.40
2022-08-05T22:20:03.397Z,19.40
2022-08-05T22:22:07.037Z,19.40
2022-08-05T22:24:53.553Z,19.40
2022-08-05T22:28:09.463Z,19.30
2022-08-05T22:30:35.434Z,19.30
2022-08-05T22:33:04.173Z,19.30
2022-08-05T22:35:48.554Z,19.20
2022-08-05T22:38:16.390Z,19.20
2022-08-05T22:40:50.034Z,19.10
2022-08-05T22:43:36.192Z,19.00
2022-08-05T22:46:13.305Z,19.00
2022-08-05T22:48:41.723Z,18.90
2022-08-05T22:51:15.972Z,18.90
2022-08-05T22:53:50.482Z,18.80
2022-08-05T22:56:17.929Z,18.80
2022-08-05T22:58:58.151Z,18.70
2022-08-05T23:02:04.975Z,18.60
2022-08-05T23:04:13.903Z,18.50
2022-08-05T23:06:41.253Z,18.50
2022-08-05T23:09:27.425Z,18.40
2022-08-05T23:11:55.937Z,18.40
2022-08-05T23:14:31.792Z,18.30
2022-08-05T23:17:24.558Z,18.30
2022-08-05T23:20:02.255Z,18.30
2022-08-05T23:22:29.259Z,18.10
2022-08-05T23:24:57.842Z,18.10
2022-08-05T23:27:31.490Z,18.20
2022-08-05T23:30:11.755Z,18.10
2022-08-05T23:32:40.756Z,18.10
2022-08-05T23:35:12.461Z,18.00
2022-08-05T23:37:39.238Z,18.00
2022-08-05T23:40:07.686Z,17.90
2022-08-05T23:42:37.334Z,17.90
2022-08-05T23:45:14.344Z,17.80
2022-08-05T23:47:47.792Z,17.80
2022-08-05T23:50:15.205Z,17.70
2022-08-05T23:52:50.168Z,17.60
2022-08-05T23:55:19.033Z,17.50
2022-08-05T23:57:48.993Z,17.50
